Time,TemperatureF,DewpointF,PressureIn,WindDirection,WindDirectionDegrees,WindSpeedMPH,WindSpeedGustMPH,Humidity,HourlyPrecipIn,Conditions,Clouds,dailyrainin,SoftwareType,DateUTC
2013-03-03 00:09:00,47.1,38.2,29.84,West,270,1.7,-999.0,71,-99.99,,,0.00,Acu-Link.com,2013-03-03 05:09:00,
2013-03-03 00:24:00,47.1,38.2,29.83,WSW,247,2.2,-999.0,71,-99.99,,,0.00,Acu-Link.com,2013-03-03 05:24:00,
2013-03-03 00:39:00,46.9,38.4,29.83,WNW,292,0.0,-999.0,72,-99.99,,,0.00,Acu-Link.com,2013-03-03 05:39:00,
2013-03-03 00:54:00,45.0,37.2,29.84,NNW,337,2.2,-999.0,74,-99.99,,,0.00,Acu-Link.com,2013-03-03 05:54:00,
2013-03-03 01:10:00,45.5,35.6,29.84,ESE,112,2.7,-999.0,68,-99.99,,,0.00,Acu-Link.com,2013-03-03 06:10:00,
2013-03-03 01:25:00,44.1,33.9,29.85,NE,45,2.7,-999.0,67,-99.99,,,0.00,Acu-Link.com,2013-03-03 06:25:00,
2013-03-03 01:40:00,43.2,33.4,29.85,South,180,1.7,-999.0,68,-99.99,,,0.00,Acu-Link.com,2013-03-03 06:40:00,
2013-03-03 01:56:00,42.4,32.2,29.85,NNE,22,1.7,-999.0,67,-99.99,,,0.00,Acu-Link.com,2013-03-03 06:56:00,
2013-03-03 02:11:00,42.1,30.8,29.85,SE,135,2.2,-999.0,64,-99.99,,,0.00,Acu-Link.com,2013-03-03 07:11:00,
2013-03-03 02:26:00,41.7,30.4,29.85,ENE,67,1.7,-999.0,64,-99.99,,,0.00,Acu-Link.com,2013-03-03 07:26:00,
2013-03-03 02:42:00,41.4,30.1,29.85,ESE,112,2.7,-999.0,64,-99.99,,,0.00,Acu-Link.com,2013-03-03 07:42:00,
2013-03-03 02:57:00,41.0,29.8,29.85,NW,315,1.7,-999.0,64,-99.99,,,0.00,Acu-Link.com,2013-03-03 07:57:00,
2013-03-03 03:12:00,40.5,30.4,29.85,NNW,337,3.2,-999.0,67,-99.99,,,0.00,Acu-Link.com,2013-03-03 08:12:00,
2013-03-03 03:27:00,39.6,31.0,29.85,WNW,292,1.7,-999.0,71,-99.99,,,0.00,Acu-Link.com,2013-03-03 08:27:00,
2013-03-03 03:43:00,39.9,30.9,29.85,East,90,0.0,-999.0,70,-99.99,,,0.00,Acu-Link.com,2013-03-03 08:43:00,
2013-03-03 03:58:00,39.6,30.3,29.85,ESE,112,1.7,-999.0,69,-99.99,,,0.00,Acu-Link.com,2013-03-03 08:58:00,
2013-03-03 04:18:00,40.5,34.2,29.85,WNW,292,1.7,-999.0,78,-99.99,,,0.00,Acu-Link.com,2013-03-03 09:18:00,
2013-03-03 04:33:00,39.4,31.5,29.85,North,0,2.2,-999.0,73,-99.99,,,0.00,Acu-Link.com,2013-03-03 09:33:00,
2013-03-03 04:49:00,39.7,31.8,29.86,WSW,247,1.7,-999.0,73,-99.99,,,0.00,Acu-Link.com,2013-03-03 09:49:00,
2013-03-03 05:04:00,39.9,31.3,29.86,NE,45,1.7,-999.0,71,-99.99,,,0.00,Acu-Link.com,2013-03-03 10:04:00,
2013-03-03 05:19:00,39.4,30.1,29.86,East,90,2.7,-999.0,69,-99.99,,,0.00,Acu-Link.com,2013-03-03 10:19:00,
2013-03-03 05:35:00,39.9,30.9,29.87,WSW,247,1.1,-999.0,70,-99.99,,,0.00,Acu-Link.com,2013-03-03 10:35:00,
2013-03-03 05:50:00,39.6,29.6,29.87,NNW,337,1.1,-999.0,67,-99.99,,,0.00,Acu-Link.com,2013-03-03 10:50:00,
2013-03-03 06:06:00,38.5,29.6,29.87,West,270,1.7,-999.0,70,-99.99,,,0.00,Acu-Link.com,2013-03-03 11:06:00,
2013-03-03 06:21:00,38.3,29.7,29.88,WNW,292,1.1,-999.0,71,-99.99,,,0.00,Acu-Link.com,2013-03-03 11:21:00,
2013-03-03 06:36:00,39.2,30.9,29.89,SSW,202,1.1,-999.0,72,-99.99,,,0.00,Acu-Link.com,2013-03-03 11:36:00,
2013-03-03 06:51:00,39.6,30.6,29.89,SE,135,0.0,-999.0,70,-99.99,,,0.00,Acu-Link.com,2013-03-03 11:51:00,
2013-03-03 07:06:00,39.6,30.3,29.89,NNE,22,2.2,-999.0,69,-99.99,,,0.00,Acu-Link.com,2013-03-03 12:06:00,
2013-03-03 07:22:00,40.5,30.8,29.89,ENE,67,2.7,-999.0,68,-99.99,,,0.00,Acu-Link.com,2013-03-03 12:22:00,
2013-03-03 07:37:00,41.0,31.3,29.90,ESE,112,1.7,-999.0,68,-99.99,,,0.00,Acu-Link.com,2013-03-03 12:37:00,
2013-03-03 07:52:00,41.2,31.5,29.90,ESE,112,2.7,-999.0,68,-99.99,,,0.00,Acu-Link.com,2013-03-03 12:52:00,
2013-03-03 08:08:00,44.4,32.6,29.91,North,0,1.7,-999.0,63,-99.99,,,0.00,Acu-Link.com,2013-03-03 13:08:00,
2013-03-03 08:23:00,44.4,31.8,29.91,ESE,112,1.7,-999.0,61,-99.99,,,0.00,Acu-Link.com,2013-03-03 13:23:00,
2013-03-03 08:38:00,44.4,31.4,29.92,SE,135,1.1,-999.0,60,-99.99,,,0.00,Acu-Link.com,2013-03-03 13:38:00,
2013-03-03 08:53:00,47.1,32.7,29.92,SE,135,3.2,-999.0,57,-99.99,,,0.00,Acu-Link.com,2013-03-03 13:53:00,
2013-03-03 09:08:00,48.6,33.6,29.91,SSE,157,0.0,-999.0,56,-99.99,,,0.00,Acu-Link.com,2013-03-03 14:08:00,
2013-03-03 09:24:00,48.9,33.9,29.92,South,180,2.7,-999.0,56,-99.99,,,0.00,Acu-Link.com,2013-03-03 14:24:00,
2013-03-03 09:39:00,48.7,32.8,29.93,NE,45,1.7,-999.0,54,-99.99,,,0.00,Acu-Link.com,2013-03-03 14:39:00,
2013-03-03 09:54:00,51.4,34.8,29.93,NW,315,4.7,-999.0,53,-99.99,,,0.00,Acu-Link.com,2013-03-03 14:54:00,
2013-03-03 10:10:00,52.2,34.1,29.93,South,180,1.7,-999.0,50,-99.99,,,0.00,Acu-Link.com,2013-03-03 15:10:00,
2013-03-03 10:25:00,52.2,34.1,29.92,South,180,2.7,-999.0,50,-99.99,,,0.00,Acu-Link.com,2013-03-03 15:25:00,
2013-03-03 10:40:00,53.8,35.6,29.91,NE,45,3.2,-999.0,50,-99.99,,,0.00,Acu-Link.com,2013-03-03 15:40:00,
2013-03-03 10:55:00,54.3,36.1,29.91,NNE,22,3.2,-999.0,50,-99.99,,,0.00,Acu-Link.com,2013-03-03 15:55:00,
2013-03-03 11:10:00,55.2,37.4,29.91,North,0,2.2,-999.0,51,-99.99,,,0.00,Acu-Link.com,2013-03-03 16:10:00,
2013-03-03 11:25:00,56.5,38.1,29.91,West,270,3.2,-999.0,50,-99.99,,,0.00,Acu-Link.com,2013-03-03 16:25:00,
2013-03-03 11:41:00,56.5,38.1,29.90,SSW,202,3.7,-999.0,50,-99.99,,,0.00,Acu-Link.com,2013-03-03 16:41:00,
2013-03-03 11:56:00,56.5,37.6,29.90,SE,135,5.3,-999.0,49,-99.99,,,0.00,Acu-Link.com,2013-03-03 16:56:00,
2013-03-03 12:11:00,57.0,37.5,29.89,NW,315,9.4,-999.0,48,-99.99,,,0.00,Acu-Link.com,2013-03-03 17:11:00,
2013-03-03 12:26:00,57.4,38.4,29.89,North,0,4.2,-999.0,49,-99.99,,,0.00,Acu-Link.com,2013-03-03 17:26:00,
2013-03-03 12:42:00,58.8,38.1,29.88,West,270,5.3,-999.0,46,-99.99,,,0.00,Acu-Link.com,2013-03-03 17:42:00,
2013-03-03 12:57:00,58.1,37.4,29.88,SSE,157,3.2,-999.0,46,-99.99,,,0.00,Acu-Link.com,2013-03-03 17:57:00,
2013-03-03 13:12:00,58.5,36.7,29.87,South,180,6.8,-999.0,44,-99.99,,,0.00,Acu-Link.com,2013-03-03 18:12:00,
2013-03-03 13:27:00,57.9,37.2,29.86,ESE,112,5.3,-999.0,46,-99.99,,,0.00,Acu-Link.com,2013-03-03 18:27:00,
2013-03-03 13:43:00,58.8,37.5,29.86,East,90,5.3,-999.0,45,-99.99,,,0.00,Acu-Link.com,2013-03-03 18:43:00,
2013-03-03 13:58:00,59.4,36.9,29.85,NW,315,6.3,-999.0,43,-99.99,,,0.00,Acu-Link.com,2013-03-03 18:58:00,
2013-03-03 14:13:00,58.1,37.4,29.85,North,0,5.3,-999.0,46,-99.99,,,0.00,Acu-Link.com,2013-03-03 19:13:00,
2013-03-03 14:28:00,58.1,38.0,29.85,North,0,5.8,-999.0,47,-99.99,,,0.00,Acu-Link.com,2013-03-03 19:28:00,
2013-03-03 14:43:00,59.4,37.5,29.85,NE,45,3.7,-999.0,44,-99.99,,,0.00,Acu-Link.com,2013-03-03 19:43:00,
2013-03-03 14:58:00,55.4,36.0,29.84,SE,135,2.2,-999.0,48,-99.99,,,0.00,Acu-Link.com,2013-03-03 19:58:00,
2013-03-03 15:13:00,57.2,37.7,29.85,NNE,22,4.2,-999.0,48,-99.99,,,0.00,Acu-Link.com,2013-03-03 20:13:00,
2013-03-03 15:29:00,56.7,37.8,29.85,NE,45,3.7,-999.0,49,-99.99,,,0.00,Acu-Link.com,2013-03-03 20:29:00,
2013-03-03 15:44:00,54.0,36.3,29.86,East,90,5.3,-999.0,51,-99.99,,,0.00,Acu-Link.com,2013-03-03 20:44:00,
2013-03-03 15:59:00,54.5,37.2,29.85,NNW,337,3.2,-999.0,52,-99.99,,,0.00,Acu-Link.com,2013-03-03 20:59:00,
2013-03-03 16:14:00,54.9,37.6,29.85,NNE,22,2.7,-999.0,52,-99.99,,,0.00,Acu-Link.com,2013-03-03 21:14:00,
2013-03-03 16:30:00,55.0,36.7,29.85,NW,315,2.7,-999.0,50,-99.99,,,0.00,Acu-Link.com,2013-03-03 21:30:00,
2013-03-03 16:45:00,54.9,37.6,29.86,SW,225,5.8,-999.0,52,-99.99,,,0.00,Acu-Link.com,2013-03-03 21:45:00,
2013-03-03 17:00:00,53.8,37.1,29.86,South,180,7.3,-999.0,53,-99.99,,,0.00,Acu-Link.com,2013-03-03 22:00:00,
2013-03-03 17:15:00,54.0,36.8,29.86,ESE,112,2.7,-999.0,52,-99.99,,,0.00,Acu-Link.com,2013-03-03 22:15:00,
2013-03-03 17:30:00,55.0,36.2,29.86,South,180,4.2,-999.0,49,-99.99,,,0.00,Acu-Link.com,2013-03-03 22:30:00,
2013-03-03 17:46:00,53.4,36.7,29.87,ENE,67,2.7,-999.0,53,-99.99,,,0.00,Acu-Link.com,2013-03-03 22:46:00,
2013-03-03 18:01:00,51.4,35.8,29.87,SE,135,4.2,-999.0,55,-99.99,,,0.00,Acu-Link.com,2013-03-03 23:01:00,
2013-03-03 18:16:00,50.4,34.8,29.88,West,270,5.8,-999.0,55,-99.99,,,0.00,Acu-Link.com,2013-03-03 23:16:00,
2013-03-03 18:31:00,50.0,35.4,29.88,NNW,337,6.3,-999.0,57,-99.99,,,0.00,Acu-Link.com,2013-03-03 23:31:00,
2013-03-03 18:46:00,49.5,35.8,29.89,SW,225,4.2,-999.0,59,-99.99,,,0.00,Acu-Link.com,2013-03-03 23:46:00,
2013-03-03 19:01:00,49.1,35.8,29.90,WSW,247,2.7,-999.0,60,-99.99,,,0.00,Acu-Link.com,2013-03-04 00:01:00,
2013-03-03 19:17:00,48.6,36.2,29.92,WNW,292,5.3,-999.0,62,-99.99,,,0.00,Acu-Link.com,2013-03-04 00:17:00,
2013-03-03 19:32:00,48.2,35.8,29.92,NNW,337,3.2,-999.0,62,-99.99,,,0.00,Acu-Link.com,2013-03-04 00:32:00,
2013-03-03 19:47:00,47.7,36.1,29.92,SSW,202,3.2,-999.0,64,-99.99,,,0.00,Acu-Link.com,2013-03-04 00:47:00,
2013-03-03 20:03:00,47.3,35.4,29.94,West,270,7.8,-999.0,63,-99.99,,,0.00,Acu-Link.com,2013-03-04 01:03:00,
2013-03-03 20:18:00,46.8,35.7,29.94,NNW,337,4.7,-999.0,65,-99.99,,,0.00,Acu-Link.com,2013-03-04 01:18:00,
2013-03-03 20:33:00,46.6,35.1,29.96,ESE,112,3.7,-999.0,64,-99.99,,,0.00,Acu-Link.com,2013-03-04 01:33:00,
2013-03-03 20:49:00,46.0,35.3,29.96,North,0,2.7,-999.0,66,-99.99,,,0.00,Acu-Link.com,2013-03-04 01:49:00,
2013-03-03 21:04:00,45.9,35.2,29.96,WNW,292,4.7,-999.0,66,-99.99,,,0.00,Acu-Link.com,2013-03-04 02:04:00,
2013-03-03 21:19:00,45.5,34.4,29.97,SSW,202,2.2,-999.0,65,-99.99,,,0.00,Acu-Link.com,2013-03-04 02:19:00,
2013-03-03 21:35:00,45.1,35.2,29.98,SSW,202,2.2,-999.0,68,-99.99,,,0.00,Acu-Link.com,2013-03-04 02:35:00,
2013-03-03 21:50:00,44.6,34.7,29.99,SW,225,3.2,-999.0,68,-99.99,,,0.00,Acu-Link.com,2013-03-04 02:50:00,
2013-03-03 22:05:00,44.4,34.5,30.00,WNW,292,4.2,-999.0,68,-99.99,,,0.00,Acu-Link.com,2013-03-04 03:05:00,
2013-03-03 22:20:00,44.4,34.9,30.00,North,0,1.7,-999.0,69,-99.99,,,0.00,Acu-Link.com,2013-03-04 03:20:00,
2013-03-03 22:35:00,44.1,34.6,30.01,SSE,157,1.1,-999.0,69,-99.99,,,0.00,Acu-Link.com,2013-03-04 03:35:00,
2013-03-03 22:51:00,43.7,34.2,30.01,South,180,1.7,-999.0,69,-99.99,,,0.00,Acu-Link.com,2013-03-04 03:51:00,
2013-03-03 23:06:00,43.3,33.8,30.02,East,90,0.0,-999.0,69,-99.99,,,0.00,Acu-Link.com,2013-03-04 04:06:00,
2013-03-03 23:21:00,43.0,33.2,30.01,East,90,1.7,-999.0,68,-99.99,,,0.00,Acu-Link.com,2013-03-04 04:21:00,
2013-03-03 23:37:00,43.2,33.7,30.01,SW,225,1.1,-999.0,69,-99.99,,,0.00,Acu-Link.com,2013-03-04 04:37:00,
2013-03-03 23:52:00,42.6,33.5,30.01,NNE,22,2.2,-999.0,70,-99.99,,,0.00,Acu-Link.com,2013-03-04 04:52:00,